createdAt,value
2022-08-05T00:01:36.090Z,22.35
2022-08-05T00:04:17.070Z,22.45
2022-08-05T00:06:45.102Z,22.43
2022-08-05T00:09:15.911Z,22.44
2022-08-05T00:11:49.058Z,22.39
2022-08-05T00:14:22.529Z,22.40
2022-08-05T00:16:54.969Z,22.42
2022-08-05T00:19:33.537Z,22.54
2022-08-05T00:22:11.736Z,22.37
2022-08-05T00:24:42.417Z,22.35
2022-08-05T00:27:16.650Z,22.42
2022-08-05T00:29:44.596Z,22.39
2022-08-05T00:32:14.891Z,22.45
2022-08-05T00:35:03.413Z,22.37
2022-08-05T00:37:53.205Z,22.32
2022-08-05T00:40:27.034Z,22.32
2022-08-05T00:43:02.101Z,22.41
2022-08-05T00:45:38.458Z,22.37
2022-08-05T00:48:16.756Z,22.24
2022-08-05T00:50:47.994Z,22.23
2022-08-05T00:54:01.187Z,22.29
2022-08-05T00:56:07.743Z,22.36
2022-08-05T00:58:35.492Z,22.33
2022-08-05T01:01:08.703Z,22.27
2022-08-05T01:03:36.752Z,22.25
2022-08-05T01:06:05.638Z,22.42
2022-08-05T01:08:43.437Z,22.27
2022-08-05T01:11:36.712Z,22.07
2022-08-05T01:14:15.255Z,22.12
2022-08-05T01:16:57.126Z,22.02
2022-08-05T01:19:36.922Z,22.09
2022-08-05T01:23:15.252Z,22.05
2022-08-05T01:26:10.420Z,21.96
2022-08-05T01:28:48.878Z,22.00
2022-08-05T01:31:44.936Z,21.99
2022-08-05T01:34:31.820Z,21.91
2022-08-05T01:37:18.068Z,21.83
2022-08-05T01:39:58.654Z,21.81
2022-08-05T01:42:28.474Z,21.86
2022-08-05T01:44:59.247Z,21.79
2022-08-05T01:47:39.673Z,21.85
2022-08-05T01:50:16.018Z,21.80
2022-08-05T01:52:49.786Z,21.76
2022-08-05T01:55:20.724Z,21.69
2022-08-05T01:58:12.155Z,21.57
2022-08-05T02:00:42.574Z,21.47
2022-08-05T02:03:34.448Z,21.46
2022-08-05T02:06:33.185Z,21.46
2022-08-05T02:08:58.368Z,21.37
2022-08-05T02:11:33.525Z,21.40
2022-08-05T02:14:12.350Z,21.37
2022-08-05T02:16:52.954Z,21.35
2022-08-05T02:19:35.045Z,21.36
2022-08-05T02:22:26.671Z,21.25
2022-08-05T02:25:07.814Z,21.34
2022-08-05T02:27:58.241Z,21.29
2022-08-05T02:30:31.303Z,21.34
2022-08-05T02:33:03.052Z,21.29
2022-08-05T02:35:37.652Z,21.27
2022-08-05T02:38:19.133Z,21.40
2022-08-05T02:40:47.456Z,21.39
2022-08-05T02:43:16.976Z,21.58
2022-08-05T02:45:52.032Z,21.38
2022-08-05T02:48:28.977Z,21.30
2022-08-05T02:51:02.661Z,21.33
2022-08-05T02:53:39.183Z,21.35
2022-08-05T02:56:16.156Z,21.25
2022-08-05T02:58:51.575Z,21.27
2022-08-05T03:01:25.131Z,21.20
2022-08-05T03:04:03.361Z,21.31
2022-08-05T03:06:55.389Z,21.35
2022-08-05T03:09:27.194Z,21.34
2022-08-05T03:12:05.718Z,21.42
2022-08-05T03:14:32.694Z,21.47
2022-08-05T03:17:00.811Z,21.37
2022-08-05T03:19:33.863Z,21.30
2022-08-05T03:22:05.093Z,21.33
2022-08-05T03:24:47.323Z,21.47
2022-08-05T03:27:20.123Z,21.39
2022-08-05T03:30:08.319Z,21.47
2022-08-05T03:32:35.137Z,21.76
2022-08-05T03:35:04.474Z,21.99
2022-08-05T03:37:31.943Z,22.28
2022-08-05T03:40:13.249Z,23.08
2022-08-05T03:42:52.110Z,23.88
2022-08-05T03:45:22.677Z,24.44
2022-08-05T03:47:51.182Z,24.70
2022-08-05T03:50:18.804Z,25.25
2022-08-05T03:55:52.517Z,25.73
2022-08-05T03:56:17.221Z,26.75
2022-08-05T03:59:00.015Z,27.78
2022-08-05T04:01:32.325Z,28.32
2022-08-05T04:04:09.757Z,28.72
2022-08-05T04:06:47.418Z,29.33
2022-08-05T04:09:26.108Z,29.91
2022-08-05T04:11:56.400Z,30.79
2022-08-05T04:14:30.296Z,31.81
2022-08-05T04:17:00.228Z,32.83
2022-08-05T04:19:29.860Z,33.52
2022-08-05T04:22:08.562Z,33.90
2022-08-05T04:24:52.538Z,34.95
2022-08-05T04:27:42.034Z,35.92
2022-08-05T04:30:09.970Z,37.02
2022-08-05T04:32:37.643Z,37.54
2022-08-05T04:35:07.232Z,38.38
2022-08-05T04:38:02.852Z,38.68
2022-08-05T04:40:44.458Z,38.92
2022-08-05T04:43:16.618Z,40.19
2022-08-05T04:45:48.782Z,40.80
2022-08-05T04:48:26.933Z,41.20
2022-08-05T04:51:03.547Z,41.42
2022-08-05T04:53:38.652Z,42.70
2022-08-05T04:56:32.884Z,42.87
2022-08-05T04:58:56.880Z,42.94
2022-08-05T05:01:59.664Z,42.73
2022-08-05T05:04:11.211Z,43.39
2022-08-05T05:06:44.858Z,43.36
2022-08-05T05:09:17.739Z,43.55
2022-08-05T05:11:53.275Z,43.61
2022-08-05T05:14:31.287Z,44.15
2022-08-05T05:17:03.344Z,44.46
2022-08-05T05:19:37.301Z,45.60
2022-08-05T05:22:23.869Z,45.93
2022-08-05T05:24:59.870Z,45.96
2022-08-05T05:27:44.499Z,47.13
2022-08-05T05:30:29.882Z,45.40
2022-08-05T05:33:08.935Z,46.34
2022-08-05T05:35:45.269Z,47.00
2022-08-05T05:38:13.846Z,46.99
2022-08-05T05:40:48.265Z,45.37
2022-08-05T05:43:54.357Z,45.35
2022-08-05T05:46:17.616Z,45.72
2022-08-05T05:48:47.778Z,46.70
2022-08-05T05:51:24.118Z,45.52
2022-08-05T05:53:57.540Z,45.09
2022-08-05T05:56:34.365Z,45.80
2022-08-05T05:59:07.610Z,45.62
2022-08-05T06:01:39.438Z,45.62
2022-08-05T06:04:12.677Z,45.30
2022-08-05T06:06:47.617Z,46.82
2022-08-05T06:09:24.882Z,45.23
2022-08-05T06:12:01.456Z,46.22
2022-08-05T06:14:30.821Z,47.52
2022-08-05T06:16:58.842Z,47.16
2022-08-05T06:19:35.433Z,46.96
2022-08-05T06:22:06.486Z,45.82
2022-08-05T06:24:35.386Z,45.93
2022-08-05T06:27:04.104Z,45.76
2022-08-05T06:29:46.933Z,46.05
2022-08-05T06:32:24.851Z,46.32
2022-08-05T06:34:58.683Z,46.03
2022-08-05T06:37:52.276Z,47.17
2022-08-05T06:40:18.184Z,48.30
2022-08-05T06:42:52.326Z,48.68
2022-08-05T06:45:44.527Z,47.13
2022-08-05T06:48:36.410Z,47.53
2022-08-05T06:50:57.661Z,48.03
2022-08-05T06:53:28.672Z,46.91
2022-08-05T06:55:59.951Z,46.83
2022-08-05T06:58:35.334Z,47.27
2022-08-05T07:01:06.596Z,47.32
2022-08-05T07:03:35.006Z,48.77
2022-08-05T07:06:05.832Z,47.72
2022-08-05T07:08:48.020Z,46.46
2022-08-05T07:11:22.538Z,45.34
2022-08-05T07:14:15.636Z,45.47
2022-08-05T07:18:02.210Z,44.45
2022-08-05T07:22:28.812Z,44.92
2022-08-05T07:24:59.424Z,44.46
2022-08-05T07:27:27.606Z,44.73
2022-08-05T07:30:24.715Z,44.60
2022-08-05T07:32:57.683Z,44.03
2022-08-05T07:36:04.400Z,43.19
2022-08-05T07:38:32.401Z,42.66
2022-08-05T07:41:04.480Z,41.74
2022-08-05T07:43:46.753Z,41.54
2022-08-05T07:46:24.574Z,40.44
2022-08-05T07:49:03.350Z,39.85
2022-08-05T07:51:53.103Z,40.13
2022-08-05T07:54:30.925Z,39.35
2022-08-05T07:57:18.194Z,39.97
2022-08-05T07:59:49.917Z,40.76
2022-08-05T08:02:17.862Z,41.32
2022-08-05T08:04:49.262Z,41.23
2022-08-05T08:07:22.477Z,40.37
2022-08-05T08:09:52.351Z,39.96
2022-08-05T08:12:32.004Z,38.98
2022-08-05T08:15:15.594Z,38.79
2022-08-05T08:17:50.592Z,38.07
2022-08-05T08:20:43.594Z,39.08
2022-08-05T08:23:59.914Z,37.61
2022-08-05T08:26:00.260Z,38.93
2022-08-05T08:28:36.497Z,37.35
2022-08-05T08:31:09.789Z,38.17
2022-08-05T08:33:42.031Z,38.32
2022-08-05T08:36:38.474Z,39.40
2022-08-05T08:38:58.217Z,40.15
2022-08-05T08:41:51.239Z,39.55
2022-08-05T08:45:18.599Z,38.60
2022-08-05T08:47:47.103Z,38.45
2022-08-05T08:50:06.087Z,37.96
2022-08-05T08:52:52.954Z,38.33
2022-08-05T08:56:02.811Z,38.20
2022-08-05T08:58:12.832Z,37.74
2022-08-05T09:00:42.663Z,37.63
2022-08-05T09:03:16.031Z,37.21
2022-08-05T09:06:07.613Z,37.37
2022-08-05T09:08:35.184Z,37.43
2022-08-05T09:11:08.785Z,37.34
2022-08-05T09:14:10.328Z,36.86
2022-08-05T09:16:28.739Z,37.52
2022-08-05T09:18:56.576Z,36.39
2022-08-05T09:22:17.956Z,36.32
2022-08-05T09:24:15.740Z,36.70
2022-08-05T09:26:51.867Z,35.91
2022-08-05T09:29:19.596Z,36.42
2022-08-05T09:32:45.866Z,36.44
2022-08-05T09:34:56.320Z,36.50
2022-08-05T09:38:16.802Z,35.74
2022-08-05T09:40:41.192Z,35.81
2022-08-05T09:43:40.858Z,35.90
2022-08-05T09:46:32.758Z,36.16
2022-08-05T09:49:19.680Z,36.15
2022-08-05T09:51:49.954Z,36.12
2022-08-05T09:54:29.156Z,35.74
2022-08-05T09:56:57.477Z,35.86
2022-08-05T09:59:28.708Z,36.21
2022-08-05T10:02:02.221Z,35.21
2022-08-05T10:04:38.585Z,35.90
2022-08-05T10:07:20.847Z,35.78
2022-08-05T10:10:15.177Z,36.02
2022-08-05T10:12:55.111Z,36.03
2022-08-05T10:15:43.932Z,35.58
2022-08-05T10:18:27.228Z,35.24
2022-08-05T10:21:11.723Z,34.78
2022-08-05T10:24:00.074Z,35.15
2022-08-05T10:26:32.304Z,35.30
2022-08-05T10:29:01.005Z,35.14
2022-08-05T10:33:01.020Z,35.50
2022-08-05T10:34:16.935Z,35.81
2022-08-05T10:36:44.444Z,35.46
2022-08-05T10:40:03.330Z,34.80
2022-08-05T10:42:34.105Z,34.62
2022-08-05T10:45:21.510Z,34.34
2022-08-05T10:48:29.232Z,34.57
2022-08-05T10:50:59.625Z,34.92
2022-08-05T10:53:56.208Z,34.66
2022-08-05T10:56:36.620Z,34.14
2022-08-05T10:59:12.635Z,33.98
2022-08-05T11:02:14.228Z,34.10
2022-08-05T11:04:48.181Z,33.89
2022-08-05T11:07:18.562Z,33.44
2022-08-05T11:10:09.561Z,33.45
2022-08-05T11:12:38.288Z,33.04
2022-08-05T11:16:01.171Z,33.07
2022-08-05T11:18:32.307Z,32.47
2022-08-05T11:21:02.160Z,32.99
2022-08-05T11:24:03.063Z,32.99
2022-08-05T11:26:32.609Z,32.93
2022-08-05T11:29:11.979Z,33.07
2022-08-05T11:31:56.231Z,32.86
2022-08-05T11:34:51.637Z,32.74
2022-08-05T11:38:28.239Z,32.75
2022-08-05T11:41:12.818Z,32.74
2022-08-05T11:44:12.692Z,32.96
2022-08-05T11:47:11.797Z,32.68
2022-08-05T11:49:49.890Z,32.92
2022-08-05T11:52:31.088Z,32.59
2022-08-05T11:55:07.336Z,32.45
2022-08-05T11:58:08.110Z,32.35
2022-08-05T12:00:30.505Z,32.41
2022-08-05T12:02:58.122Z,32.47
2022-08-05T12:05:36.318Z,32.12
2022-08-05T12:08:11.286Z,32.23
2022-08-05T12:10:45.532Z,32.36
2022-08-05T12:13:28.103Z,32.43
2022-08-05T12:16:15.495Z,32.44
2022-08-05T12:18:49.542Z,32.47
2022-08-05T12:21:29.890Z,32.45
2022-08-05T12:24:08.229Z,32.28
2022-08-05T12:26:51.440Z,32.16
2022-08-05T12:29:23.522Z,31.94
2022-08-05T12:32:02.107Z,32.16
2022-08-05T12:34:33.675Z,32.23
2022-08-05T12:37:21.632Z,32.18
2022-08-05T12:39:53.781Z,32.54
2022-08-05T12:42:21.715Z,32.50
2022-08-05T12:44:52.535Z,32.56
2022-08-05T12:47:31.052Z,32.56
2022-08-05T12:50:03.316Z,32.48
2022-08-05T12:52:38.917Z,32.18
2022-08-05T12:55:29.009Z,32.37
2022-08-05T12:58:49.608Z,32.20
2022-08-05T13:02:01.159Z,32.24
2022-08-05T13:03:42.996Z,31.96
2022-08-05T13:06:22.631Z,31.69
2022-08-05T13:08:51.567Z,31.98
2022-08-05T13:11:59.776Z,31.98
2022-08-05T13:14:36.560Z,32.09
2022-08-05T13:17:25.182Z,32.34
2022-08-05T13:20:09.283Z,32.53
2022-08-05T13:22:47.120Z,32.57
2022-08-05T13:25:19.188Z,32.46
2022-08-05T13:27:51.034Z,32.30
2022-08-05T13:30:34.167Z,32.20
2022-08-05T13:33:04.173Z,32.47
2022-08-05T13:35:47.190Z,32.22
2022-08-05T13:38:30.459Z,32.55
2022-08-05T13:41:01.403Z,32.51
2022-08-05T13:43:44.738Z,32.35
2022-08-05T13:46:16.495Z,32.33
2022-08-05T13:49:02.975Z,32.60
2022-08-05T13:51:36.593Z,32.70
2022-08-05T13:54:11.694Z,32.47
2022-08-05T13:56:50.574Z,32.58
2022-08-05T13:59:27.505Z,32.35
2022-08-05T14:02:00.292Z,32.43
2022-08-05T14:05:01.457Z,32.75
2022-08-05T14:08:00.537Z,32.70
2022-08-05T14:10:28.878Z,32.51
2022-08-05T14:12:59.652Z,32.53
2022-08-05T14:16:08.237Z,32.40
2022-08-05T14:18:18.607Z,32.43
2022-08-05T14:20:54.518Z,32.44
2022-08-05T14:23:25.623Z,32.37
2022-08-05T14:25:57.823Z,32.49
2022-08-05T14:28:27.059Z,32.62
2022-08-05T14:30:55.919Z,32.59
2022-08-05T14:33:24.153Z,32.60
2022-08-05T14:35:54.352Z,32.68
2022-08-05T14:38:32.738Z,32.48
2022-08-05T14:41:07.524Z,32.68
2022-08-05T14:43:53.956Z,32.26
2022-08-05T14:46:28.270Z,32.06
2022-08-05T14:48:59.514Z,32.35
2022-08-05T14:51:31.003Z,32.57
2022-08-05T14:54:27.601Z,32.49
2022-08-05T14:56:47.202Z,32.46
2022-08-05T14:59:15.223Z,32.55
2022-08-05T15:01:47.834Z,32.45
2022-08-05T15:04:22.299Z,32.44
2022-08-05T15:06:51.507Z,32.58
2022-08-05T15:09:51.841Z,32.58
2022-08-05T15:12:09.435Z,32.46
2022-08-05T15:14:48.144Z,32.44
2022-08-05T15:17:45.566Z,32.69
2022-08-05T15:20:18.306Z,32.26
2022-08-05T15:22:54.345Z,32.05
2022-08-05T15:25:41.011Z,32.30
2022-08-05T15:28:14.780Z,32.18
2022-08-05T15:30:46.356Z,32.27
2022-08-05T15:34:05.979Z,32.29
2022-08-05T15:36:06.058Z,32.18
2022-08-05T15:38:44.295Z,32.15
2022-08-05T15:41:22.375Z,32.05
2022-08-05T15:43:54.514Z,32.03
2022-08-05T15:46:24.345Z,31.85
2022-08-05T15:48:58.727Z,31.77
2022-08-05T15:52:10.017Z,31.73
2022-08-05T15:54:17.116Z,31.78
2022-08-05T15:56:44.242Z,32.01
2022-08-05T15:59:21.838Z,31.80
2022-08-05T16:01:52.698Z,31.81
2022-08-05T16:04:25.169Z,31.84
2022-08-05T16:06:55.622Z,31.98
2022-08-05T16:09:24.080Z,31.89
2022-08-05T16:11:53.211Z,31.95
2022-08-05T16:14:22.976Z,31.89
2022-08-05T16:16:50.957Z,31.79
2022-08-05T16:19:25.519Z,31.83
2022-08-05T16:22:07.071Z,31.86
2022-08-05T16:24:41.007Z,32.00
2022-08-05T16:27:18.025Z,32.02
2022-08-05T16:29:51.099Z,31.81
2022-08-05T16:32:23.372Z,31.66
2022-08-05T16:34:57.559Z,31.79
2022-08-05T16:38:02.655Z,31.82
2022-08-05T16:40:26.730Z,32.00
2022-08-05T16:42:56.463Z,31.89
2022-08-05T16:46:06.669Z,31.93
2022-08-05T16:48:10.593Z,31.86
2022-08-05T16:50:37.698Z,31.84
2022-08-05T16:53:12.079Z,31.86
2022-08-05T16:55:46.588Z,31.72
2022-08-05T16:58:14.641Z,31.67
2022-08-05T17:00:48.160Z,31.58
2022-08-05T17:03:20.590Z,31.51
2022-08-05T17:05:53.728Z,31.54
2022-08-05T17:08:36.685Z,31.52
2022-08-05T17:11:12.684Z,31.59
2022-08-05T17:13:45.562Z,31.47
2022-08-05T17:16:33.606Z,31.48
2022-08-05T17:19:07.895Z,31.35
2022-08-05T17:21:40.950Z,31.20
2022-08-05T17:24:34.962Z,31.23
2022-08-05T17:27:05.439Z,31.23
2022-08-05T17:29:34.023Z,31.13
2022-08-05T17:32:17.178Z,31.13
2022-08-05T17:34:48.216Z,31.07
2022-08-05T17:37:41.166Z,31.04
2022-08-05T17:40:10.090Z,31.01
2022-08-05T17:42:46.492Z,30.99
2022-08-05T17:45:22.121Z,30.93
2022-08-05T17:47:55.809Z,30.79
2022-08-05T17:50:30.347Z,30.83
2022-08-05T17:53:04.519Z,30.80
2022-08-05T17:55:38.491Z,30.72
2022-08-05T17:58:13.404Z,30.69
2022-08-05T18:00:47.727Z,30.65
2022-08-05T18:06:11.925Z,30.54
2022-08-05T18:08:44.733Z,30.36
2022-08-05T18:11:23.358Z,30.33
2022-08-05T18:13:56.966Z,30.26
2022-08-05T18:16:26.618Z,30.16
2022-08-05T18:18:53.614Z,30.24
2022-08-05T18:21:26.369Z,30.19
2022-08-05T18:23:55.528Z,30.08
2022-08-05T18:26:27.605Z,30.09
2022-08-05T18:28:57.538Z,30.09
2022-08-05T18:31:25.358Z,29.98
2022-08-05T18:34:00.206Z,29.91
2022-08-05T18:36:28.281Z,29.78
2022-08-05T18:38:55.886Z,29.85
2022-08-05T18:41:58.226Z,29.68
2022-08-05T18:44:12.939Z,29.68
2022-08-05T18:46:41.004Z,29.54
2022-08-05T18:49:30.505Z,29.49
2022-08-05T18:52:16.479Z,29.43
2022-08-05T18:54:46.112Z,29.47
2022-08-05T18:57:18.009Z,29.34
2022-08-05T19:00:02.556Z,29.23
2022-08-05T19:02:31.173Z,29.27
2022-08-05T19:05:02.861Z,29.17
2022-08-05T19:07:50.215Z,29.14
2022-08-05T19:10:27.939Z,29.04
2022-08-05T19:12:59.135Z,29.12
2022-08-05T19:15:58.977Z,29.03
2022-08-05T19:18:20.749Z,28.94
2022-08-05T19:20:52.416Z,29.02
2022-08-05T19:24:03.622Z,28.92
2022-08-05T19:26:09.142Z,28.91
2022-08-05T19:28:43.175Z,28.87
2022-08-05T19:31:13.352Z,28.85
2022-08-05T19:33:48.387Z,28.89
2022-08-05T19:36:29.175Z,28.69
2022-08-05T19:39:00.866Z,28.62
2022-08-05T19:42:05.620Z,28.70
2022-08-05T19:44:18.994Z,28.63
2022-08-05T19:46:46.682Z,28.54
2022-08-05T19:49:17.062Z,28.75
2022-08-05T19:52:08.628Z,28.39
2022-08-05T19:54:34.548Z,28.43
2022-08-05T19:57:09.611Z,28.25
2022-08-05T20:00:01.534Z,28.43
2022-08-05T20:02:31.424Z,28.40
2022-08-05T20:04:59.812Z,28.42
2022-08-05T20:07:47.529Z,28.36
2022-08-05T20:10:17.499Z,28.20
2022-08-05T20:12:49.199Z,28.07
2022-08-05T20:15:48.043Z,28.22
2022-08-05T20:18:10.689Z,28.18
2022-08-05T20:20:55.877Z,28.12
2022-08-05T20:23:40.480Z,28.07
2022-08-05T20:26:17.114Z,28.14
2022-08-05T20:28:51.228Z,28.01
2022-08-05T20:31:37.012Z,27.93
2022-08-05T20:34:12.535Z,27.91
2022-08-05T20:36:43.439Z,27.82
2022-08-05T20:39:16.305Z,27.65
2022-08-05T20:41:45.267Z,27.79
2022-08-05T20:44:19.403Z,27.49
2022-08-05T20:47:00.607Z,27.60
2022-08-05T20:49:27.874Z,27.48
2022-08-05T20:51:57.375Z,27.42
2022-08-05T20:54:43.038Z,27.43
2022-08-05T20:57:15.102Z,27.39
2022-08-05T21:00:20.108Z,27.42
2022-08-05T21:02:54.545Z,27.29
2022-08-05T21:05:24.185Z,27.23
2022-08-05T21:07:52.368Z,27.11
2022-08-05T21:10:20.410Z,27.09
2022-08-05T21:13:08.193Z,27.09
2022-08-05T21:15:36.714Z,27.15
2022-08-05T21:18:04.328Z,27.17
2022-08-05T21:20:33.425Z,27.11
2022-08-05T21:23:01.089Z,27.11
2022-08-05T21:25:33.830Z,27.07
2022-08-05T21:28:06.708Z,27.07
2022-08-05T21:30:33.751Z,27.06
2022-08-05T21:33:01.788Z,26.89
2022-08-05T21:35:55.523Z,26.94
2022-08-05T21:38:17.126Z,27.01
2022-08-05T21:40:44.088Z,26.98
2022-08-05T21:43:24.059Z,27.06
2022-08-05T21:45:57.597Z,26.95
2022-08-05T21:48:28.799Z,26.89
2022-08-05T21:50:56.390Z,26.78
2022-08-05T21:53:27.661Z,26.84
2022-08-05T21:56:16.298Z,26.70
2022-08-05T21:58:56.929Z,26.76
2022-08-05T22:01:26.119Z,26.66
2022-08-05T22:03:53.842Z,26.78
2022-08-05T22:06:35.382Z,26.71
2022-08-05T22:09:13.898Z,26.72
2022-08-05T22:11:47.973Z,26.75
2022-08-05T22:14:34.994Z,26.67
2022-08-05T22:17:06.601Z,26.69
2022-08-05T22:20:00.333Z,26.70
2022-08-05T22:22:26.963Z,26.56
2022-08-05T22:25:27.266Z,26.62
2022-08-05T22:28:11.379Z,26.56
2022-08-05T22:30:44.097Z,26.48
2022-08-05T22:33:55.406Z,26.54
2022-08-05T22:36:10.056Z,26.64
2022-08-05T22:38:37.167Z,26.47
2022-08-05T22:41:09.515Z,26.54
2022-08-05T22:43:38.200Z,26.46
2022-08-05T22:46:13.390Z,26.54
2022-08-05T22:48:48.001Z,26.52
2022-08-05T22:51:22.400Z,26.56
2022-08-05T22:53:51.118Z,26.50
2022-08-05T22:56:30.028Z,26.41
2022-08-05T22:58:59.986Z,26.42
2022-08-05T23:02:05.095Z,26.42
2022-08-05T23:04:18.907Z,26.46
2022-08-05T23:06:47.648Z,26.39
2022-08-05T23:09:27.606Z,26.42
2022-08-05T23:12:02.511Z,26.40
2022-08-05T23:14:32.843Z,26.33
2022-08-05T23:17:24.198Z,26.42
2022-08-05T23:20:01.126Z,26.39
2022-08-05T23:22:30.895Z,26.21
2022-08-05T23:24:58.414Z,26.24
2022-08-05T23:27:28.985Z,26.30
2022-08-05T23:30:10.706Z,26.12
2022-08-05T23:32:38.100Z,26.14
2022-08-05T23:35:12.651Z,26.16
2022-08-05T23:37:39.731Z,26.25
2022-08-05T23:40:09.637Z,26.14
2022-08-05T23:42:38.723Z,25.98
2022-08-05T23:45:14.181Z,25.94
2022-08-05T23:47:48.331Z,25.99
2022-08-05T23:50:19.968Z,25.97
2022-08-05T23:52:49.682Z,25.88
2022-08-05T23:55:19.124Z,25.82
2022-08-05T23:57:48.993Z,25.80
